Partoun, Utah
Current Conditions -  °F | °C
As of 7:15 PM on Monday 22 Dec 2014 (Local Time) from KENV Reporting Station
Broken Clouds Broken Clouds  
Wind Chill: 37°   Ceiling: 5000
Heat Index: 43°   Visibility: 10mi
Dew Point: 25°   Wind: 9mph
Humidity: 49%   Direction: 360°N
Pressure: 30.18"   Gusts: NA
Location:  40.2503°N, 113.457°W
Report Text: KENV 230215Z AUTO 36008KT 10SM BKN050 BKN075 06/M04 A3018 RMK AO1
Loading
Personal Weather Stations






























Interactive Weather Map New forecast layout! Learn more

10-Day Weather Forecast

Advertisements
Track Severe Weather on mobile